Fairfield, Kentucky
Current Conditions -  °F | °C
As of 10:15 PM on Thursday 27 Nov 2014 (Local Time) from K6I2 Reporting Station
Overcast Overcast  
Wind Chill: 22°   Ceiling: 2300
Heat Index: 28°   Visibility: 10mi
Dew Point: 19°   Wind: 6mph
Humidity: 69%   Direction: 360°N
Pressure: 30.44"   Gusts: NA
Location:  37.93°N, 85.38°W
Report Text: K6I2 280315Z AUTO 36005KT 10SM OVC023 M02/M07 A3044 RMK AO2
Loading
Personal Weather Stations






























Interactive Weather Map New forecast layout! Learn more

10-Day Weather Forecast

Advertisements
Track Severe Weather on mobile